sensor_id;sensor_type;location;lat;lon;timestamp;P1;durP1;ratioP1;P2;durP2;ratioP2
8716;SDS011;4395;48.554;8.820;2023-12-22T00:01:53;4.13;;;1.15;;
8716;SDS011;4395;48.554;8.820;2023-12-22T00:03:56;2.63;;;1.08;;
8716;SDS011;4395;48.554;8.820;2023-12-22T00:06:00;3.47;;;1.45;;
8716;SDS011;4395;48.554;8.820;2023-12-22T00:08:04;3.00;;;1.30;;
8716;SDS011;4395;48.554;8.820;2023-12-22T00:10:08;3.28;;;1.55;;
8716;SDS011;4395;48.554;8.820;2023-12-22T00:12:10;5.18;;;1.20;;
8716;SDS011;4395;48.554;8.820;2023-12-22T00:14:13;3.35;;;1.20;;
8716;SDS011;4395;48.554;8.820;2023-12-22T00:16:16;3.72;;;1.45;;
8716;SDS011;4395;48.554;8.820;2023-12-22T00:18:19;3.45;;;1.50;;
8716;SDS011;4395;48.554;8.820;2023-12-22T00:20:22;5.97;;;1.35;;
8716;SDS011;4395;48.554;8.820;2023-12-22T00:22:26;2.40;;;1.20;;
8716;SDS011;4395;48.554;8.820;2023-12-22T00:24:29;6.25;;;1.50;;
8716;SDS011;4395;48.554;8.820;2023-12-22T00:26:32;1.95;;;1.10;;
8716;SDS011;4395;48.554;8.820;2023-12-22T00:28:35;3.78;;;1.40;;
8716;SDS011;4395;48.554;8.820;2023-12-22T00:30:37;5.35;;;1.48;;
8716;SDS011;4395;48.554;8.820;2023-12-22T00:32:40;4.07;;;1.23;;
8716;SDS011;4395;48.554;8.820;2023-12-22T00:34:44;5.75;;;1.27;;
8716;SDS011;4395;48.554;8.820;2023-12-22T00:36:45;3.60;;;1.30;;
8716;SDS011;4395;48.554;8.820;2023-12-22T00:38:50;2.75;;;1.33;;
8716;SDS011;4395;48.554;8.820;2023-12-22T00:40:53;3.65;;;1.50;;
8716;SDS011;4395;48.554;8.820;2023-12-22T00:42:56;5.25;;;1.42;;
8716;SDS011;4395;48.554;8.820;2023-12-22T00:44:57;3.67;;;1.52;;
8716;SDS011;4395;48.554;8.820;2023-12-22T00:47:00;2.58;;;1.20;;
8716;SDS011;4395;48.554;8.820;2023-12-22T00:49:03;2.65;;;1.50;;
8716;SDS011;4395;48.554;8.820;2023-12-22T00:51:06;5.47;;;1.30;;
8716;SDS011;4395;48.554;8.820;2023-12-22T00:53:09;2.67;;;1.17;;
8716;SDS011;4395;48.554;8.820;2023-12-22T00:55:13;2.83;;;1.45;;
8716;SDS011;4395;48.554;8.820;2023-12-22T00:57:16;1.63;;;1.13;;
8716;SDS011;4395;48.554;8.820;2023-12-22T00:59:19;1.55;;;0.93;;
8716;SDS011;4395;48.554;8.820;2023-12-22T01:01:21;1.67;;;0.80;;
8716;SDS011;4395;48.554;8.820;2023-12-22T01:03:24;2.95;;;0.80;;
8716;SDS011;4395;48.554;8.820;2023-12-22T01:05:27;2.55;;;1.13;;
8716;SDS011;4395;48.554;8.820;2023-12-22T01:07:30;3.45;;;0.90;;
8716;SDS011;4395;48.554;8.820;2023-12-22T01:09:33;1.67;;;0.50;;
8716;SDS011;4395;48.554;8.820;2023-12-22T01:11:37;1.52;;;0.90;;
8716;SDS011;4395;48.554;8.820;2023-12-22T01:13:40;1.58;;;0.80;;
8716;SDS011;4395;48.554;8.820;2023-12-22T01:15:43;3.92;;;0.82;;
8716;SDS011;4395;48.554;8.820;2023-12-22T01:17:45;1.85;;;0.93;;
8716;SDS011;4395;48.554;8.820;2023-12-22T01:19:48;3.22;;;1.20;;
8716;SDS011;4395;48.554;8.820;2023-12-22T01:21:50;3.45;;;0.95;;
8716;SDS011;4395;48.554;8.820;2023-12-22T01:23:53;1.52;;;0.70;;
8716;SDS011;4395;48.554;8.820;2023-12-22T01:25:56;1.85;;;0.80;;
8716;SDS011;4395;48.554;8.820;2023-12-22T01:28:00;2.30;;;0.93;;
8716;SDS011;4395;48.554;8.820;2023-12-22T01:30:07;1.42;;;0.70;;
8716;SDS011;4395;48.554;8.820;2023-12-22T01:32:10;2.53;;;0.70;;
8716;SDS011;4395;48.554;8.820;2023-12-22T01:34:29;0.82;;;0.40;;
8716;SDS011;4395;48.554;8.820;2023-12-22T01:36:33;2.13;;;0.32;;
8716;SDS011;4395;48.554;8.820;2023-12-22T01:38:35;1.23;;;0.50;;
8716;SDS011;4395;48.554;8.820;2023-12-22T01:40:38;0.75;;;0.50;;
8716;SDS011;4395;48.554;8.820;2023-12-22T01:42:40;1.55;;;0.55;;
8716;SDS011;4395;48.554;8.820;2023-12-22T01:44:43;0.82;;;0.30;;
8716;SDS011;4395;48.554;8.820;2023-12-22T01:46:44;1.30;;;0.50;;
8716;SDS011;4395;48.554;8.820;2023-12-22T01:48:48;0.68;;;0.50;;
8716;SDS011;4395;48.554;8.820;2023-12-22T01:50:53;0.20;;;0.20;;
8716;SDS011;4395;48.554;8.820;2023-12-22T01:52:57;0.40;;;0.30;;
8716;SDS011;4395;48.554;8.820;2023-12-22T01:55:00;0.98;;;0.40;;
8716;SDS011;4395;48.554;8.820;2023-12-22T01:57:04;1.50;;;0.50;;
8716;SDS011;4395;48.554;8.820;2023-12-22T01:59:08;1.50;;;0.65;;
8716;SDS011;4395;48.554;8.820;2023-12-22T02:01:13;1.83;;;0.70;;
8716;SDS011;4395;48.554;8.820;2023-12-22T02:03:17;1.17;;;0.50;;
8716;SDS011;4395;48.554;8.820;2023-12-22T02:05:20;3.08;;;1.30;;
8716;SDS011;4395;48.554;8.820;2023-12-22T02:07:24;3.72;;;1.02;;
8716;SDS011;4395;48.554;8.820;2023-12-22T02:09:27;2.13;;;0.80;;
8716;SDS011;4395;48.554;8.820;2023-12-22T02:11:30;3.13;;;0.90;;
8716;SDS011;4395;48.554;8.820;2023-12-22T02:13:33;2.17;;;0.93;;
8716;SDS011;4395;48.554;8.820;2023-12-22T02:15:36;1.70;;;0.80;;
8716;SDS011;4395;48.554;8.820;2023-12-22T02:17:43;3.80;;;1.02;;
8716;SDS011;4395;48.554;8.820;2023-12-22T02:19:50;2.95;;;1.20;;
8716;SDS011;4395;48.554;8.820;2023-12-22T02:21:59;3.70;;;1.27;;
8716;SDS011;4395;48.554;8.820;2023-12-22T02:24:07;3.47;;;1.00;;
8716;SDS011;4395;48.554;8.820;2023-12-22T02:26:13;4.25;;;1.60;;
8716;SDS011;4395;48.554;8.820;2023-12-22T02:28:24;3.83;;;1.40;;
8716;SDS011;4395;48.554;8.820;2023-12-22T02:30:29;2.55;;;1.00;;
8716;SDS011;4395;48.554;8.820;2023-12-22T02:32:36;3.75;;;0.98;;
8716;SDS011;4395;48.554;8.820;2023-12-22T02:34:41;2.00;;;1.13;;
8716;SDS011;4395;48.554;8.820;2023-12-22T02:36:46;4.30;;;1.35;;
8716;SDS011;4395;48.554;8.820;2023-12-22T02:38:51;3.42;;;1.08;;
8716;SDS011;4395;48.554;8.820;2023-12-22T02:40:58;4.55;;;1.10;;
8716;SDS011;4395;48.554;8.820;2023-12-22T02:43:02;2.75;;;1.02;;
8716;SDS011;4395;48.554;8.820;2023-12-22T02:45:05;6.47;;;1.40;;
8716;SDS011;4395;48.554;8.820;2023-12-22T02:47:09;6.53;;;1.52;;
8716;SDS011;4395;48.554;8.820;2023-12-22T02:49:12;2.28;;;1.25;;
8716;SDS011;4395;48.554;8.820;2023-12-22T02:51:15;3.15;;;1.48;;
8716;SDS011;4395;48.554;8.820;2023-12-22T02:53:17;4.75;;;1.10;;
8716;SDS011;4395;48.554;8.820;2023-12-22T02:55:20;4.78;;;1.20;;
8716;SDS011;4395;48.554;8.820;2023-12-22T02:57:24;2.38;;;0.80;;
8716;SDS011;4395;48.554;8.820;2023-12-22T02:59:27;1.95;;;0.88;;
8716;SDS011;4395;48.554;8.820;2023-12-22T03:01:30;2.92;;;0.50;;
8716;SDS011;4395;48.554;8.820;2023-12-22T03:03:32;1.55;;;0.70;;
8716;SDS011;4395;48.554;8.820;2023-12-22T03:05:35;3.17;;;0.40;;
8716;SDS011;4395;48.554;8.820;2023-12-22T03:07:38;0.57;;;0.40;;
8716;SDS011;4395;48.554;8.820;2023-12-22T03:09:41;1.77;;;0.70;;
8716;SDS011;4395;48.554;8.820;2023-12-22T03:11:44;1.58;;;0.68;;
8716;SDS011;4395;48.554;8.820;2023-12-22T03:13:47;1.50;;;0.85;;
8716;SDS011;4395;48.554;8.820;2023-12-22T03:15:50;2.03;;;1.02;;
8716;SDS011;4395;48.554;8.820;2023-12-22T03:17:53;1.95;;;0.82;;
8716;SDS011;4395;48.554;8.820;2023-12-22T03:19:56;0.93;;;0.60;;
8716;SDS011;4395;48.554;8.820;2023-12-22T03:21:59;2.15;;;0.75;;
8716;SDS011;4395;48.554;8.820;2023-12-22T03:24:01;1.85;;;0.80;;
8716;SDS011;4395;48.554;8.820;2023-12-22T03:26:04;1.20;;;0.55;;
8716;SDS011;4395;48.554;8.820;2023-12-22T03:28:06;1.38;;;0.60;;
8716;SDS011;4395;48.554;8.820;2023-12-22T03:30:11;0.65;;;0.43;;
8716;SDS011;4395;48.554;8.820;2023-12-22T03:32:14;1.08;;;0.60;;
8716;SDS011;4395;48.554;8.820;2023-12-22T03:34:16;1.58;;;0.77;;
8716;SDS011;4395;48.554;8.820;2023-12-22T03:36:19;2.05;;;1.00;;
8716;SDS011;4395;48.554;8.820;2023-12-22T03:38:22;2.13;;;1.15;;
8716;SDS011;4395;48.554;8.820;2023-12-22T03:40:25;3.50;;;0.70;;
8716;SDS011;4395;48.554;8.820;2023-12-22T03:42:27;3.35;;;0.82;;
8716;SDS011;4395;48.554;8.820;2023-12-22T03:44:30;3.80;;;0.95;;
8716;SDS011;4395;48.554;8.820;2023-12-22T03:46:34;3.80;;;1.33;;
8716;SDS011;4395;48.554;8.820;2023-12-22T03:48:37;3.92;;;1.58;;
8716;SDS011;4395;48.554;8.820;2023-12-22T03:50:40;3.03;;;1.67;;
8716;SDS011;4395;48.554;8.820;2023-12-22T03:52:43;4.13;;;1.30;;
8716;SDS011;4395;48.554;8.820;2023-12-22T03:54:46;3.60;;;1.08;;
8716;SDS011;4395;48.554;8.820;2023-12-22T03:56:48;3.90;;;1.25;;
8716;SDS011;4395;48.554;8.820;2023-12-22T03:58:51;3.13;;;1.40;;
8716;SDS011;4395;48.554;8.820;2023-12-22T04:00:54;5.55;;;1.50;;
8716;SDS011;4395;48.554;8.820;2023-12-22T04:02:58;6.03;;;1.48;;
8716;SDS011;4395;48.554;8.820;2023-12-22T04:05:01;5.82;;;1.83;;
8716;SDS011;4395;48.554;8.820;2023-12-22T04:07:04;7.60;;;1.63;;
8716;SDS011;4395;48.554;8.820;2023-12-22T04:09:07;3.92;;;1.88;;
8716;SDS011;4395;48.554;8.820;2023-12-22T04:11:09;3.78;;;1.17;;
8716;SDS011;4395;48.554;8.820;2023-12-22T04:13:11;4.25;;;1.42;;
8716;SDS011;4395;48.554;8.820;2023-12-22T04:15:14;3.53;;;1.27;;
8716;SDS011;4395;48.554;8.820;2023-12-22T04:17:16;5.13;;;1.38;;
8716;SDS011;4395;48.554;8.820;2023-12-22T04:19:20;4.22;;;1.45;;
8716;SDS011;4395;48.554;8.820;2023-12-22T04:21:23;5.35;;;1.42;;
8716;SDS011;4395;48.554;8.820;2023-12-22T04:23:26;3.97;;;1.20;;
8716;SDS011;4395;48.554;8.820;2023-12-22T04:25:28;2.85;;;1.30;;
8716;SDS011;4395;48.554;8.820;2023-12-22T04:27:31;3.70;;;1.25;;
8716;SDS011;4395;48.554;8.820;2023-12-22T04:29:33;3.60;;;1.20;;
8716;SDS011;4395;48.554;8.820;2023-12-22T04:31:36;2.20;;;1.35;;
8716;SDS011;4395;48.554;8.820;2023-12-22T04:33:39;4.25;;;2.08;;
8716;SDS011;4395;48.554;8.820;2023-12-22T04:35:43;3.38;;;1.05;;
8716;SDS011;4395;48.554;8.820;2023-12-22T04:37:46;3.63;;;0.90;;
8716;SDS011;4395;48.554;8.820;2023-12-22T04:39:49;3.97;;;1.50;;
8716;SDS011;4395;48.554;8.820;2023-12-22T04:41:51;2.50;;;1.35;;
8716;SDS011;4395;48.554;8.820;2023-12-22T04:43:54;3.67;;;1.50;;
8716;SDS011;4395;48.554;8.820;2023-12-22T04:45:57;7.63;;;1.63;;
8716;SDS011;4395;48.554;8.820;2023-12-22T04:48:00;6.65;;;1.83;;
8716;SDS011;4395;48.554;8.820;2023-12-22T04:50:04;5.95;;;1.02;;
8716;SDS011;4395;48.554;8.820;2023-12-22T04:52:09;3.72;;;1.38;;
8716;SDS011;4395;48.554;8.820;2023-12-22T04:54:13;6.72;;;1.75;;
8716;SDS011;4395;48.554;8.820;2023-12-22T04:56:16;5.82;;;1.60;;
8716;SDS011;4395;48.554;8.820;2023-12-22T04:58:17;5.10;;;1.77;;
8716;SDS011;4395;48.554;8.820;2023-12-22T05:00:20;6.78;;;1.70;;
8716;SDS011;4395;48.554;8.820;2023-12-22T05:02:23;6.47;;;1.92;;
8716;SDS011;4395;48.554;8.820;2023-12-22T05:04:26;6.85;;;2.10;;
8716;SDS011;4395;48.554;8.820;2023-12-22T05:06:29;6.38;;;1.65;;
8716;SDS011;4395;48.554;8.820;2023-12-22T05:08:33;5.07;;;1.50;;
8716;SDS011;4395;48.554;8.820;2023-12-22T05:10:35;4.35;;;1.60;;
8716;SDS011;4395;48.554;8.820;2023-12-22T05:12:38;8.00;;;2.10;;
8716;SDS011;4395;48.554;8.820;2023-12-22T05:14:41;5.80;;;1.75;;
8716;SDS011;4395;48.554;8.820;2023-12-22T05:16:44;5.55;;;2.08;;
8716;SDS011;4395;48.554;8.820;2023-12-22T05:18:46;8.88;;;1.73;;
8716;SDS011;4395;48.554;8.820;2023-12-22T05:20:49;7.40;;;1.92;;
8716;SDS011;4395;48.554;8.820;2023-12-22T05:22:53;9.10;;;1.98;;
8716;SDS011;4395;48.554;8.820;2023-12-22T05:24:57;5.68;;;2.40;;
8716;SDS011;4395;48.554;8.820;2023-12-22T05:26:59;7.35;;;2.40;;
8716;SDS011;4395;48.554;8.820;2023-12-22T05:29:02;5.70;;;1.98;;
8716;SDS011;4395;48.554;8.820;2023-12-22T05:31:04;6.45;;;2.35;;
8716;SDS011;4395;48.554;8.820;2023-12-22T05:33:07;10.80;;;2.17;;
8716;SDS011;4395;48.554;8.820;2023-12-22T05:35:09;5.70;;;1.55;;
8716;SDS011;4395;48.554;8.820;2023-12-22T05:37:12;7.13;;;2.33;;
8716;SDS011;4395;48.554;8.820;2023-12-22T05:39:15;5.93;;;2.22;;
8716;SDS011;4395;48.554;8.820;2023-12-22T05:41:19;6.68;;;2.30;;
8716;SDS011;4395;48.554;8.820;2023-12-22T05:43:22;6.35;;;1.92;;
8716;SDS011;4395;48.554;8.820;2023-12-22T05:45:24;5.93;;;2.00;;
8716;SDS011;4395;48.554;8.820;2023-12-22T05:47:28;8.15;;;2.30;;
8716;SDS011;4395;48.554;8.820;2023-12-22T05:49:31;4.60;;;1.67;;
8716;SDS011;4395;48.554;8.820;2023-12-22T05:51:37;7.32;;;2.50;;
8716;SDS011;4395;48.554;8.820;2023-12-22T05:53:40;5.65;;;1.98;;
8716;SDS011;4395;48.554;8.820;2023-12-22T05:55:43;5.25;;;1.60;;
8716;SDS011;4395;48.554;8.820;2023-12-22T05:57:47;9.05;;;1.90;;
8716;SDS011;4395;48.554;8.820;2023-12-22T05:59:50;3.80;;;1.40;;
8716;SDS011;4395;48.554;8.820;2023-12-22T06:01:53;7.53;;;1.75;;
8716;SDS011;4395;48.554;8.820;2023-12-22T06:03:57;5.13;;;1.23;;
8716;SDS011;4395;48.554;8.820;2023-12-22T06:05:59;8.10;;;1.92;;
8716;SDS011;4395;48.554;8.820;2023-12-22T06:08:06;5.55;;;1.60;;
8716;SDS011;4395;48.554;8.820;2023-12-22T06:10:11;4.10;;;1.40;;
8716;SDS011;4395;48.554;8.820;2023-12-22T06:12:13;4.07;;;1.60;;
8716;SDS011;4395;48.554;8.820;2023-12-22T06:14:18;6.78;;;2.40;;
8716;SDS011;4395;48.554;8.820;2023-12-22T06:16:19;4.60;;;1.75;;
8716;SDS011;4395;48.554;8.820;2023-12-22T06:18:22;6.50;;;1.70;;
8716;SDS011;4395;48.554;8.820;2023-12-22T06:20:25;6.68;;;1.42;;
8716;SDS011;4395;48.554;8.820;2023-12-22T06:22:28;4.80;;;1.83;;
8716;SDS011;4395;48.554;8.820;2023-12-22T06:24:31;4.63;;;1.73;;
8716;SDS011;4395;48.554;8.820;2023-12-22T06:26:34;7.13;;;1.60;;
8716;SDS011;4395;48.554;8.820;2023-12-22T06:28:37;8.60;;;1.83;;
8716;SDS011;4395;48.554;8.820;2023-12-22T06:30:42;6.32;;;1.58;;
8716;SDS011;4395;48.554;8.820;2023-12-22T06:32:45;4.97;;;1.67;;
8716;SDS011;4395;48.554;8.820;2023-12-22T06:34:49;3.83;;;1.27;;
8716;SDS011;4395;48.554;8.820;2023-12-22T06:36:52;5.07;;;1.75;;
8716;SDS011;4395;48.554;8.820;2023-12-22T06:38:55;5.38;;;1.92;;
8716;SDS011;4395;48.554;8.820;2023-12-22T06:40:56;7.05;;;2.05;;
8716;SDS011;4395;48.554;8.820;2023-12-22T06:42:59;4.43;;;1.13;;
8716;SDS011;4395;48.554;8.820;2023-12-22T06:45:03;7.95;;;2.15;;
8716;SDS011;4395;48.554;8.820;2023-12-22T06:47:07;4.00;;;1.38;;
8716;SDS011;4395;48.554;8.820;2023-12-22T06:49:10;7.65;;;2.17;;
8716;SDS011;4395;48.554;8.820;2023-12-22T06:51:16;5.20;;;1.65;;
8716;SDS011;4395;48.554;8.820;2023-12-22T06:53:19;4.25;;;1.90;;
8716;SDS011;4395;48.554;8.820;2023-12-22T06:55:26;5.70;;;2.03;;
8716;SDS011;4395;48.554;8.820;2023-12-22T06:57:28;6.25;;;2.33;;
8716;SDS011;4395;48.554;8.820;2023-12-22T06:59:33;10.15;;;2.50;;
8716;SDS011;4395;48.554;8.820;2023-12-22T07:01:37;6.63;;;1.85;;
8716;SDS011;4395;48.554;8.820;2023-12-22T07:03:42;5.70;;;2.38;;
8716;SDS011;4395;48.554;8.820;2023-12-22T07:05:43;6.30;;;1.70;;
8716;SDS011;4395;48.554;8.820;2023-12-22T07:07:46;5.80;;;1.92;;
8716;SDS011;4395;48.554;8.820;2023-12-22T07:09:48;9.68;;;2.33;;
8716;SDS011;4395;48.554;8.820;2023-12-22T07:11:51;7.82;;;2.40;;
8716;SDS011;4395;48.554;8.820;2023-12-22T07:13:57;7.40;;;2.22;;
8716;SDS011;4395;48.554;8.820;2023-12-22T07:16:00;4.95;;;1.70;;
8716;SDS011;4395;48.554;8.820;2023-12-22T07:18:03;9.63;;;2.50;;
8716;SDS011;4395;48.554;8.820;2023-12-22T07:20:09;8.15;;;3.20;;
8716;SDS011;4395;48.554;8.820;2023-12-22T07:22:11;5.50;;;2.03;;
8716;SDS011;4395;48.554;8.820;2023-12-22T07:24:15;7.60;;;2.28;;
8716;SDS011;4395;48.554;8.820;2023-12-22T07:26:17;6.40;;;4.15;;
8716;SDS011;4395;48.554;8.820;2023-12-22T07:28:22;7.88;;;2.50;;
8716;SDS011;4395;48.554;8.820;2023-12-22T07:30:24;11.57;;;4.15;;
8716;SDS011;4395;48.554;8.820;2023-12-22T07:32:27;5.45;;;1.90;;
8716;SDS011;4395;48.554;8.820;2023-12-22T07:34:30;7.90;;;3.50;;
8716;SDS011;4395;48.554;8.820;2023-12-22T07:36:39;8.88;;;2.25;;
8716;SDS011;4395;48.554;8.820;2023-12-22T07:38:51;7.82;;;2.10;;
8716;SDS011;4395;48.554;8.820;2023-12-22T07:40:56;6.47;;;2.30;;
8716;SDS011;4395;48.554;8.820;2023-12-22T07:43:00;4.07;;;2.03;;
8716;SDS011;4395;48.554;8.820;2023-12-22T07:45:03;6.38;;;2.17;;
8716;SDS011;4395;48.554;8.820;2023-12-22T07:47:06;6.57;;;1.90;;
8716;SDS011;4395;48.554;8.820;2023-12-22T07:49:11;5.05;;;2.35;;
8716;SDS011;4395;48.554;8.820;2023-12-22T07:51:16;6.55;;;2.53;;
8716;SDS011;4395;48.554;8.820;2023-12-22T07:53:20;6.43;;;2.33;;
8716;SDS011;4395;48.554;8.820;2023-12-22T07:55:23;4.28;;;1.83;;
8716;SDS011;4395;48.554;8.820;2023-12-22T07:57:26;10.35;;;3.30;;
8716;SDS011;4395;48.554;8.820;2023-12-22T07:59:28;9.00;;;2.42;;
8716;SDS011;4395;48.554;8.820;2023-12-22T08:01:33;6.68;;;2.60;;
8716;SDS011;4395;48.554;8.820;2023-12-22T08:03:36;7.32;;;1.90;;
8716;SDS011;4395;48.554;8.820;2023-12-22T08:05:39;7.10;;;2.50;;
8716;SDS011;4395;48.554;8.820;2023-12-22T08:07:42;7.03;;;2.40;;
8716;SDS011;4395;48.554;8.820;2023-12-22T08:09:46;7.68;;;2.42;;
8716;SDS011;4395;48.554;8.820;2023-12-22T08:11:49;10.02;;;2.97;;
8716;SDS011;4395;48.554;8.820;2023-12-22T08:13:54;5.93;;;1.90;;
8716;SDS011;4395;48.554;8.820;2023-12-22T08:15:57;8.20;;;2.42;;
8716;SDS011;4395;48.554;8.820;2023-12-22T08:18:00;8.80;;;2.30;;
8716;SDS011;4395;48.554;8.820;2023-12-22T08:20:02;6.22;;;2.22;;
8716;SDS011;4395;48.554;8.820;2023-12-22T08:22:14;8.27;;;2.13;;
8716;SDS011;4395;48.554;8.820;2023-12-22T08:24:18;6.60;;;2.10;;
8716;SDS011;4395;48.554;8.820;2023-12-22T08:26:25;7.07;;;2.50;;
8716;SDS011;4395;48.554;8.820;2023-12-22T08:28:28;6.07;;;2.45;;
8716;SDS011;4395;48.554;8.820;2023-12-22T08:30:31;7.68;;;2.00;;
8716;SDS011;4395;48.554;8.820;2023-12-22T08:32:34;5.82;;;1.55;;
8716;SDS011;4395;48.554;8.820;2023-12-22T08:34:37;4.18;;;1.67;;
8716;SDS011;4395;48.554;8.820;2023-12-22T08:36:40;6.85;;;2.17;;
8716;SDS011;4395;48.554;8.820;2023-12-22T08:38:44;5.55;;;1.85;;
8716;SDS011;4395;48.554;8.820;2023-12-22T08:40:48;10.07;;;2.78;;
8716;SDS011;4395;48.554;8.820;2023-12-22T08:42:54;3.55;;;1.55;;
8716;SDS011;4395;48.554;8.820;2023-12-22T08:45:01;6.75;;;1.75;;
8716;SDS011;4395;48.554;8.820;2023-12-22T08:47:04;7.78;;;2.22;;
8716;SDS011;4395;48.554;8.820;2023-12-22T08:49:07;5.80;;;2.28;;
8716;SDS011;4395;48.554;8.820;2023-12-22T08:51:10;6.22;;;3.08;;
8716;SDS011;4395;48.554;8.820;2023-12-22T08:53:13;7.32;;;2.58;;
8716;SDS011;4395;48.554;8.820;2023-12-22T08:55:16;5.75;;;1.90;;
8716;SDS011;4395;48.554;8.820;2023-12-22T08:57:18;7.10;;;2.15;;
8716;SDS011;4395;48.554;8.820;2023-12-22T08:59:23;6.80;;;2.22;;
8716;SDS011;4395;48.554;8.820;2023-12-22T09:01:25;7.45;;;2.10;;
8716;SDS011;4395;48.554;8.820;2023-12-22T09:03:27;6.60;;;2.55;;
8716;SDS011;4395;48.554;8.820;2023-12-22T09:05:31;5.20;;;1.95;;
8716;SDS011;4395;48.554;8.820;2023-12-22T09:07:34;8.18;;;3.10;;
8716;SDS011;4395;48.554;8.820;2023-12-22T09:09:38;7.38;;;2.53;;
8716;SDS011;4395;48.554;8.820;2023-12-22T09:11:41;8.50;;;2.58;;
8716;SDS011;4395;48.554;8.820;2023-12-22T09:13:44;8.68;;;2.70;;
8716;SDS011;4395;48.554;8.820;2023-12-22T09:15:48;7.45;;;2.45;;
8716;SDS011;4395;48.554;8.820;2023-12-22T09:17:51;5.38;;;2.15;;
8716;SDS011;4395;48.554;8.820;2023-12-22T09:19:55;10.15;;;2.70;;
8716;SDS011;4395;48.554;8.820;2023-12-22T09:21:58;12.30;;;2.95;;
8716;SDS011;4395;48.554;8.820;2023-12-22T09:24:00;7.78;;;2.83;;
8716;SDS011;4395;48.554;8.820;2023-12-22T09:26:03;9.65;;;2.97;;
8716;SDS011;4395;48.554;8.820;2023-12-22T09:28:06;6.03;;;1.90;;
8716;SDS011;4395;48.554;8.820;2023-12-22T09:30:09;4.97;;;1.60;;
8716;SDS011;4395;48.554;8.820;2023-12-22T09:32:14;8.55;;;2.00;;
8716;SDS011;4395;48.554;8.820;2023-12-22T09:34:17;6.07;;;2.28;;
8716;SDS011;4395;48.554;8.820;2023-12-22T09:36:19;5.93;;;2.53;;
8716;SDS011;4395;48.554;8.820;2023-12-22T09:38:22;5.60;;;1.95;;
8716;SDS011;4395;48.554;8.820;2023-12-22T09:40:25;9.43;;;2.83;;
8716;SDS011;4395;48.554;8.820;2023-12-22T09:42:27;9.07;;;2.63;;
8716;SDS011;4395;48.554;8.820;2023-12-22T09:44:31;4.70;;;2.05;;
8716;SDS011;4395;48.554;8.820;2023-12-22T09:46:35;4.95;;;2.15;;
8716;SDS011;4395;48.554;8.820;2023-12-22T09:48:39;5.78;;;2.70;;
8716;SDS011;4395;48.554;8.820;2023-12-22T09:50:43;9.15;;;2.35;;
8716;SDS011;4395;48.554;8.820;2023-12-22T09:52:46;7.65;;;2.38;;
8716;SDS011;4395;48.554;8.820;2023-12-22T09:54:49;9.85;;;3.20;;
8716;SDS011;4395;48.554;8.820;2023-12-22T09:56:52;7.72;;;2.70;;
8716;SDS011;4395;48.554;8.820;2023-12-22T09:58:56;11.02;;;2.78;;
8716;SDS011;4395;48.554;8.820;2023-12-22T10:00:59;13.13;;;3.75;;
8716;SDS011;4395;48.554;8.820;2023-12-22T10:03:04;9.90;;;2.53;;
8716;SDS011;4395;48.554;8.820;2023-12-22T10:05:10;9.70;;;2.40;;
8716;SDS011;4395;48.554;8.820;2023-12-22T10:07:12;11.50;;;2.97;;
8716;SDS011;4395;48.554;8.820;2023-12-22T10:09:16;7.07;;;2.50;;
8716;SDS011;4395;48.554;8.820;2023-12-22T10:11:19;7.50;;;2.40;;
8716;SDS011;4395;48.554;8.820;2023-12-22T10:13:25;10.60;;;2.90;;
8716;SDS011;4395;48.554;8.820;2023-12-22T10:15:29;7.10;;;2.47;;
8716;SDS011;4395;48.554;8.820;2023-12-22T10:17:33;10.75;;;2.75;;
8716;SDS011;4395;48.554;8.820;2023-12-22T10:19:36;7.80;;;2.90;;
8716;SDS011;4395;48.554;8.820;2023-12-22T10:21:40;9.25;;;2.65;;
8716;SDS011;4395;48.554;8.820;2023-12-22T10:23:43;8.15;;;2.97;;
8716;SDS011;4395;48.554;8.820;2023-12-22T10:25:46;8.70;;;2.90;;
8716;SDS011;4395;48.554;8.820;2023-12-22T10:27:49;9.50;;;2.35;;
8716;SDS011;4395;48.554;8.820;2023-12-22T10:29:53;6.22;;;2.35;;
8716;SDS011;4395;48.554;8.820;2023-12-22T10:31:57;4.78;;;1.67;;
8716;SDS011;4395;48.554;8.820;2023-12-22T10:33:59;5.28;;;1.92;;
8716;SDS011;4395;48.554;8.820;2023-12-22T10:36:02;2.58;;;1.67;;
8716;SDS011;4395;48.554;8.820;2023-12-22T10:38:06;6.93;;;1.80;;
8716;SDS011;4395;48.554;8.820;2023-12-22T10:40:10;7.78;;;2.63;;
8716;SDS011;4395;48.554;8.820;2023-12-22T10:42:13;5.18;;;2.10;;
8716;SDS011;4395;48.554;8.820;2023-12-22T10:44:16;6.07;;;1.95;;
8716;SDS011;4395;48.554;8.820;2023-12-22T10:46:19;5.45;;;2.00;;
8716;SDS011;4395;48.554;8.820;2023-12-22T10:48:22;4.07;;;1.80;;
8716;SDS011;4395;48.554;8.820;2023-12-22T10:50:25;6.78;;;2.30;;
8716;SDS011;4395;48.554;8.820;2023-12-22T10:52:28;7.95;;;2.38;;
8716;SDS011;4395;48.554;8.820;2023-12-22T10:54:33;3.80;;;1.42;;
8716;SDS011;4395;48.554;8.820;2023-12-22T10:56:38;6.05;;;1.80;;
8716;SDS011;4395;48.554;8.820;2023-12-22T10:58:40;4.90;;;1.90;;
8716;SDS011;4395;48.554;8.820;2023-12-22T11:00:47;6.20;;;2.67;;
8716;SDS011;4395;48.554;8.820;2023-12-22T11:02:54;5.97;;;2.05;;
8716;SDS011;4395;48.554;8.820;2023-12-22T11:05:02;4.38;;;1.98;;
8716;SDS011;4395;48.554;8.820;2023-12-22T11:07:08;5.47;;;1.65;;
8716;SDS011;4395;48.554;8.820;2023-12-22T11:09:12;5.78;;;1.88;;
8716;SDS011;4395;48.554;8.820;2023-12-22T11:11:30;3.17;;;1.20;;
8716;SDS011;4395;48.554;8.820;2023-12-22T11:13:35;2.88;;;1.63;;
8716;SDS011;4395;48.554;8.820;2023-12-22T11:15:40;6.35;;;1.73;;
8716;SDS011;4395;48.554;8.820;2023-12-22T11:17:44;2.33;;;1.17;;
8716;SDS011;4395;48.554;8.820;2023-12-22T11:19:49;6.63;;;1.67;;
8716;SDS011;4395;48.554;8.820;2023-12-22T11:21:55;4.20;;;1.50;;
8716;SDS011;4395;48.554;8.820;2023-12-22T11:24:00;5.10;;;2.17;;
8716;SDS011;4395;48.554;8.820;2023-12-22T11:26:05;5.25;;;2.17;;
8716;SDS011;4395;48.554;8.820;2023-12-22T11:28:10;7.00;;;4.45;;
8716;SDS011;4395;48.554;8.820;2023-12-22T11:30:16;6.13;;;3.78;;
8716;SDS011;4395;48.554;8.820;2023-12-22T11:32:20;5.80;;;2.97;;
8716;SDS011;4395;48.554;8.820;2023-12-22T11:34:23;2.60;;;1.58;;
8716;SDS011;4395;48.554;8.820;2023-12-22T11:36:31;3.35;;;1.45;;
8716;SDS011;4395;48.554;8.820;2023-12-22T11:38:34;2.53;;;1.20;;
8716;SDS011;4395;48.554;8.820;2023-12-22T11:40:37;3.85;;;1.05;;
8716;SDS011;4395;48.554;8.820;2023-12-22T11:42:40;3.35;;;2.58;;
8716;SDS011;4395;48.554;8.820;2023-12-22T11:44:49;5.50;;;1.98;;
8716;SDS011;4395;48.554;8.820;2023-12-22T11:47:02;3.78;;;1.30;;
8716;SDS011;4395;48.554;8.820;2023-12-22T11:49:06;5.28;;;2.40;;
8716;SDS011;4395;48.554;8.820;2023-12-22T11:51:11;3.72;;;1.60;;
8716;SDS011;4395;48.554;8.820;2023-12-22T11:53:17;3.65;;;1.13;;
8716;SDS011;4395;48.554;8.820;2023-12-22T11:57:57;3.00;;;1.27;;
8716;SDS011;4395;48.554;8.820;2023-12-22T12:00:05;3.10;;;1.20;;
8716;SDS011;4395;48.554;8.820;2023-12-22T12:02:12;2.75;;;1.73;;
8716;SDS011;4395;48.554;8.820;2023-12-22T12:04:15;1.92;;;0.82;;
8716;SDS011;4395;48.554;8.820;2023-12-22T12:06:22;0.93;;;0.70;;
8716;SDS011;4395;48.554;8.820;2023-12-22T12:08:32;3.08;;;0.98;;
8716;SDS011;4395;48.554;8.820;2023-12-22T12:10:51;1.92;;;0.82;;
8716;SDS011;4395;48.554;8.820;2023-12-22T12:13:03;2.92;;;1.58;;
8716;SDS011;4395;48.554;8.820;2023-12-22T12:15:11;3.92;;;2.20;;
8716;SDS011;4395;48.554;8.820;2023-12-22T12:17:19;3.78;;;1.70;;
8716;SDS011;4395;48.554;8.820;2023-12-22T12:19:22;1.70;;;1.20;;
8716;SDS011;4395;48.554;8.820;2023-12-22T12:21:25;0.88;;;0.60;;
8716;SDS011;4395;48.554;8.820;2023-12-22T12:23:28;2.17;;;0.82;;
8716;SDS011;4395;48.554;8.820;2023-12-22T12:25:32;1.42;;;0.70;;
8716;SDS011;4395;48.554;8.820;2023-12-22T12:27:37;3.40;;;0.95;;
8716;SDS011;4395;48.554;8.820;2023-12-22T12:29:41;0.82;;;0.60;;
8716;SDS011;4395;48.554;8.820;2023-12-22T12:31:45;1.20;;;0.65;;
8716;SDS011;4395;48.554;8.820;2023-12-22T12:33:48;1.90;;;0.63;;
8716;SDS011;4395;48.554;8.820;2023-12-22T12:35:50;1.75;;;0.63;;
8716;SDS011;4395;48.554;8.820;2023-12-22T12:37:56;1.75;;;0.55;;
8716;SDS011;4395;48.554;8.820;2023-12-22T12:40:00;0.57;;;0.50;;
8716;SDS011;4395;48.554;8.820;2023-12-22T12:42:06;0.95;;;0.50;;
8716;SDS011;4395;48.554;8.820;2023-12-22T12:44:10;0.68;;;0.30;;
8716;SDS011;4395;48.554;8.820;2023-12-22T12:46:13;0.45;;;0.45;;
8716;SDS011;4395;48.554;8.820;2023-12-22T12:48:17;1.13;;;0.60;;
8716;SDS011;4395;48.554;8.820;2023-12-22T12:50:21;4.82;;;1.88;;
8716;SDS011;4395;48.554;8.820;2023-12-22T12:52:24;1.75;;;0.85;;